sensor_id;sensor_type;location;lat;lon;timestamp;P1;durP1;ratioP1;P2;durP2;ratioP2
49730;SDS011;35622;52.008;5.426;2022-12-07T00:00:29;17.03;;;11.10;;
49730;SDS011;35622;52.008;5.426;2022-12-07T00:02:54;17.07;;;11.70;;
49730;SDS011;35622;52.008;5.426;2022-12-07T00:05:20;18.93;;;12.13;;
49730;SDS011;35622;52.008;5.426;2022-12-07T00:07:46;16.43;;;11.40;;
49730;SDS011;35622;52.008;5.426;2022-12-07T00:10:11;18.30;;;12.70;;
49730;SDS011;35622;52.008;5.426;2022-12-07T00:12:37;13.87;;;10.77;;
49730;SDS011;35622;52.008;5.426;2022-12-07T00:15:02;18.83;;;11.63;;
49730;SDS011;35622;52.008;5.426;2022-12-07T00:17:28;14.80;;;10.80;;
49730;SDS011;35622;52.008;5.426;2022-12-07T00:19:53;14.90;;;11.00;;
49730;SDS011;35622;52.008;5.426;2022-12-07T00:22:19;18.40;;;11.60;;
49730;SDS011;35622;52.008;5.426;2022-12-07T00:24:45;17.73;;;11.97;;
49730;SDS011;35622;52.008;5.426;2022-12-07T00:27:10;19.13;;;12.77;;
49730;SDS011;35622;52.008;5.426;2022-12-07T00:29:36;15.63;;;11.40;;
49730;SDS011;35622;52.008;5.426;2022-12-07T00:32:02;17.03;;;11.20;;
49730;SDS011;35622;52.008;5.426;2022-12-07T00:34:28;15.00;;;10.73;;
49730;SDS011;35622;52.008;5.426;2022-12-07T00:36:53;16.23;;;10.97;;
49730;SDS011;35622;52.008;5.426;2022-12-07T00:39:19;18.30;;;11.00;;
49730;SDS011;35622;52.008;5.426;2022-12-07T00:41:44;17.43;;;11.00;;
49730;SDS011;35622;52.008;5.426;2022-12-07T00:44:10;13.17;;;9.77;;
49730;SDS011;35622;52.008;5.426;2022-12-07T00:46:36;16.23;;;10.10;;
49730;SDS011;35622;52.008;5.426;2022-12-07T00:49:01;17.20;;;9.70;;
49730;SDS011;35622;52.008;5.426;2022-12-07T00:51:27;15.80;;;10.30;;
49730;SDS011;35622;52.008;5.426;2022-12-07T00:53:53;16.63;;;10.33;;
49730;SDS011;35622;52.008;5.426;2022-12-07T00:56:23;15.10;;;10.17;;
49730;SDS011;35622;52.008;5.426;2022-12-07T00:58:54;14.60;;;9.90;;
49730;SDS011;35622;52.008;5.426;2022-12-07T01:01:21;16.87;;;10.30;;
49730;SDS011;35622;52.008;5.426;2022-12-07T01:03:47;16.33;;;10.70;;
49730;SDS011;35622;52.008;5.426;2022-12-07T01:06:17;14.87;;;10.67;;
49730;SDS011;35622;52.008;5.426;2022-12-07T01:08:43;14.37;;;9.90;;
49730;SDS011;35622;52.008;5.426;2022-12-07T01:11:11;12.37;;;8.80;;
49730;SDS011;35622;52.008;5.426;2022-12-07T01:13:38;17.50;;;10.13;;
49730;SDS011;35622;52.008;5.426;2022-12-07T01:16:05;12.70;;;9.67;;
49730;SDS011;35622;52.008;5.426;2022-12-07T01:18:32;15.23;;;9.90;;
49730;SDS011;35622;52.008;5.426;2022-12-07T01:21:00;14.43;;;9.40;;
49730;SDS011;35622;52.008;5.426;2022-12-07T01:23:35;15.40;;;9.67;;
49730;SDS011;35622;52.008;5.426;2022-12-07T01:26:03;13.00;;;9.93;;
49730;SDS011;35622;52.008;5.426;2022-12-07T01:28:30;14.67;;;9.60;;
49730;SDS011;35622;52.008;5.426;2022-12-07T01:31:01;17.03;;;9.90;;
49730;SDS011;35622;52.008;5.426;2022-12-07T01:33:31;15.67;;;9.70;;
49730;SDS011;35622;52.008;5.426;2022-12-07T01:36:02;16.23;;;9.77;;
49730;SDS011;35622;52.008;5.426;2022-12-07T01:38:29;14.00;;;9.87;;
49730;SDS011;35622;52.008;5.426;2022-12-07T01:40:56;14.70;;;9.43;;
49730;SDS011;35622;52.008;5.426;2022-12-07T01:43:21;17.33;;;10.40;;
49730;SDS011;35622;52.008;5.426;2022-12-07T01:45:48;14.27;;;9.63;;
49730;SDS011;35622;52.008;5.426;2022-12-07T01:48:14;16.07;;;10.03;;
49730;SDS011;35622;52.008;5.426;2022-12-07T01:50:43;16.57;;;9.43;;
49730;SDS011;35622;52.008;5.426;2022-12-07T01:53:11;15.40;;;9.23;;
49730;SDS011;35622;52.008;5.426;2022-12-07T01:55:38;16.23;;;9.00;;
49730;SDS011;35622;52.008;5.426;2022-12-07T01:58:07;14.63;;;9.67;;
49730;SDS011;35622;52.008;5.426;2022-12-07T02:00:34;16.53;;;9.40;;
49730;SDS011;35622;52.008;5.426;2022-12-07T02:03:03;15.47;;;9.27;;
49730;SDS011;35622;52.008;5.426;2022-12-07T02:05:37;13.73;;;8.90;;
49730;SDS011;35622;52.008;5.426;2022-12-07T02:08:05;13.57;;;8.93;;
49730;SDS011;35622;52.008;5.426;2022-12-07T02:10:31;14.27;;;8.93;;
49730;SDS011;35622;52.008;5.426;2022-12-07T02:12:58;13.70;;;9.13;;
49730;SDS011;35622;52.008;5.426;2022-12-07T02:18:09;13.63;;;9.37;;
49730;SDS011;35622;52.008;5.426;2022-12-07T02:20:59;13.83;;;9.13;;
49730;SDS011;35622;52.008;5.426;2022-12-07T02:26:44;15.37;;;9.27;;
49730;SDS011;35622;52.008;5.426;2022-12-07T02:29:38;13.90;;;8.83;;
49730;SDS011;35622;52.008;5.426;2022-12-07T02:32:12;14.37;;;9.03;;
49730;SDS011;35622;52.008;5.426;2022-12-07T02:34:51;13.70;;;9.57;;
49730;SDS011;35622;52.008;5.426;2022-12-07T02:40:09;16.43;;;11.03;;
49730;SDS011;35622;52.008;5.426;2022-12-07T02:42:51;16.87;;;10.13;;
49730;SDS011;35622;52.008;5.426;2022-12-07T02:45:28;19.77;;;10.63;;
49730;SDS011;35622;52.008;5.426;2022-12-07T02:47:56;16.27;;;10.83;;
49730;SDS011;35622;52.008;5.426;2022-12-07T02:50:24;16.77;;;10.83;;
49730;SDS011;35622;52.008;5.426;2022-12-07T02:52:51;14.73;;;10.20;;
49730;SDS011;35622;52.008;5.426;2022-12-07T02:55:17;16.77;;;10.50;;
49730;SDS011;35622;52.008;5.426;2022-12-07T03:00:16;15.30;;;9.87;;
49730;SDS011;35622;52.008;5.426;2022-12-07T03:02:49;16.03;;;9.73;;
49730;SDS011;35622;52.008;5.426;2022-12-07T03:08:33;18.40;;;9.90;;
49730;SDS011;35622;52.008;5.426;2022-12-07T03:11:16;13.20;;;8.90;;
49730;SDS011;35622;52.008;5.426;2022-12-07T03:14:23;16.23;;;9.23;;
49730;SDS011;35622;52.008;5.426;2022-12-07T03:16:55;15.23;;;9.30;;
49730;SDS011;35622;52.008;5.426;2022-12-07T03:19:23;16.93;;;8.57;;
49730;SDS011;35622;52.008;5.426;2022-12-07T03:21:56;14.80;;;8.67;;
49730;SDS011;35622;52.008;5.426;2022-12-07T03:24:26;14.60;;;9.07;;
49730;SDS011;35622;52.008;5.426;2022-12-07T03:29:56;14.43;;;8.80;;
49730;SDS011;35622;52.008;5.426;2022-12-07T03:35:27;11.33;;;8.90;;
49730;SDS011;35622;52.008;5.426;2022-12-07T03:37:57;14.63;;;9.53;;
49730;SDS011;35622;52.008;5.426;2022-12-07T03:40:56;14.73;;;9.10;;
49730;SDS011;35622;52.008;5.426;2022-12-07T03:43:24;12.63;;;8.53;;
49730;SDS011;35622;52.008;5.426;2022-12-07T03:49:05;13.53;;;8.40;;
49730;SDS011;35622;52.008;5.426;2022-12-07T03:51:37;11.60;;;8.80;;
49730;SDS011;35622;52.008;5.426;2022-12-07T03:54:41;11.23;;;8.23;;
49730;SDS011;35622;52.008;5.426;2022-12-07T03:57:29;14.27;;;8.30;;
49730;SDS011;35622;52.008;5.426;2022-12-07T03:59:56;18.00;;;8.57;;
49730;SDS011;35622;52.008;5.426;2022-12-07T04:02:23;13.57;;;7.73;;
49730;SDS011;35622;52.008;5.426;2022-12-07T04:04:51;14.93;;;7.73;;
49730;SDS011;35622;52.008;5.426;2022-12-07T04:07:16;13.97;;;8.50;;
49730;SDS011;35622;52.008;5.426;2022-12-07T04:09:42;12.43;;;7.80;;
49730;SDS011;35622;52.008;5.426;2022-12-07T04:12:08;12.13;;;8.33;;
49730;SDS011;35622;52.008;5.426;2022-12-07T04:14:33;12.17;;;8.50;;
49730;SDS011;35622;52.008;5.426;2022-12-07T04:16:59;10.50;;;7.90;;
49730;SDS011;35622;52.008;5.426;2022-12-07T04:19:28;12.60;;;7.83;;
49730;SDS011;35622;52.008;5.426;2022-12-07T04:21:56;10.33;;;8.10;;
49730;SDS011;35622;52.008;5.426;2022-12-07T04:24:23;11.23;;;8.10;;
49730;SDS011;35622;52.008;5.426;2022-12-07T04:26:49;10.40;;;8.00;;
49730;SDS011;35622;52.008;5.426;2022-12-07T04:29:15;12.77;;;9.40;;
49730;SDS011;35622;52.008;5.426;2022-12-07T04:31:41;13.23;;;8.30;;
49730;SDS011;35622;52.008;5.426;2022-12-07T04:34:08;13.27;;;7.97;;
49730;SDS011;35622;52.008;5.426;2022-12-07T04:36:34;12.43;;;8.67;;
49730;SDS011;35622;52.008;5.426;2022-12-07T04:39:00;15.40;;;8.50;;
49730;SDS011;35622;52.008;5.426;2022-12-07T04:41:27;15.43;;;8.27;;
49730;SDS011;35622;52.008;5.426;2022-12-07T04:43:56;13.13;;;8.30;;
49730;SDS011;35622;52.008;5.426;2022-12-07T04:46:25;15.67;;;7.87;;
49730;SDS011;35622;52.008;5.426;2022-12-07T04:48:53;15.93;;;8.27;;
49730;SDS011;35622;52.008;5.426;2022-12-07T04:51:21;12.70;;;8.33;;
49730;SDS011;35622;52.008;5.426;2022-12-07T04:53:51;14.83;;;7.77;;
49730;SDS011;35622;52.008;5.426;2022-12-07T04:56:17;14.67;;;8.43;;
49730;SDS011;35622;52.008;5.426;2022-12-07T04:58:44;12.27;;;7.50;;
49730;SDS011;35622;52.008;5.426;2022-12-07T05:01:10;15.60;;;8.10;;
49730;SDS011;35622;52.008;5.426;2022-12-07T05:03:37;12.07;;;8.17;;
49730;SDS011;35622;52.008;5.426;2022-12-07T05:06:03;17.37;;;8.10;;
49730;SDS011;35622;52.008;5.426;2022-12-07T05:08:29;13.27;;;7.83;;
49730;SDS011;35622;52.008;5.426;2022-12-07T05:10:55;13.13;;;7.70;;
49730;SDS011;35622;52.008;5.426;2022-12-07T05:13:20;12.27;;;8.00;;
49730;SDS011;35622;52.008;5.426;2022-12-07T05:15:46;13.13;;;7.50;;
49730;SDS011;35622;52.008;5.426;2022-12-07T05:18:13;13.13;;;7.20;;
49730;SDS011;35622;52.008;5.426;2022-12-07T05:20:39;13.40;;;6.87;;
49730;SDS011;35622;52.008;5.426;2022-12-07T05:23:05;10.87;;;7.30;;
49730;SDS011;35622;52.008;5.426;2022-12-07T05:25:31;13.43;;;7.30;;
49730;SDS011;35622;52.008;5.426;2022-12-07T05:27:56;12.17;;;7.20;;
49730;SDS011;35622;52.008;5.426;2022-12-07T05:30:23;16.93;;;7.00;;
49730;SDS011;35622;52.008;5.426;2022-12-07T05:32:49;9.93;;;6.90;;
49730;SDS011;35622;52.008;5.426;2022-12-07T05:35:15;13.37;;;7.00;;
49730;SDS011;35622;52.008;5.426;2022-12-07T05:37:40;10.23;;;6.43;;
49730;SDS011;35622;52.008;5.426;2022-12-07T05:40:06;13.57;;;5.97;;
49730;SDS011;35622;52.008;5.426;2022-12-07T05:42:32;12.60;;;5.93;;
49730;SDS011;35622;52.008;5.426;2022-12-07T05:44:58;11.20;;;5.73;;
49730;SDS011;35622;52.008;5.426;2022-12-07T05:47:23;11.30;;;5.57;;
49730;SDS011;35622;52.008;5.426;2022-12-07T05:49:49;10.43;;;5.87;;
49730;SDS011;35622;52.008;5.426;2022-12-07T05:52:14;9.30;;;5.93;;
49730;SDS011;35622;52.008;5.426;2022-12-07T05:54:40;11.00;;;5.67;;
49730;SDS011;35622;52.008;5.426;2022-12-07T05:57:06;9.83;;;6.03;;
49730;SDS011;35622;52.008;5.426;2022-12-07T05:59:31;11.10;;;5.07;;
49730;SDS011;35622;52.008;5.426;2022-12-07T06:04:42;10.00;;;5.27;;
49730;SDS011;35622;52.008;5.426;2022-12-07T06:07:10;7.07;;;4.87;;
49730;SDS011;35622;52.008;5.426;2022-12-07T06:09:37;9.30;;;5.30;;
49730;SDS011;35622;52.008;5.426;2022-12-07T06:12:04;8.60;;;5.40;;
49730;SDS011;35622;52.008;5.426;2022-12-07T06:14:49;9.80;;;5.30;;
49730;SDS011;35622;52.008;5.426;2022-12-07T06:17:15;11.77;;;5.77;;
49730;SDS011;35622;52.008;5.426;2022-12-07T06:19:40;10.07;;;5.17;;
49730;SDS011;35622;52.008;5.426;2022-12-07T06:22:06;9.10;;;4.70;;
49730;SDS011;35622;52.008;5.426;2022-12-07T06:24:34;7.97;;;4.30;;
49730;SDS011;35622;52.008;5.426;2022-12-07T06:26:59;11.20;;;4.90;;
49730;SDS011;35622;52.008;5.426;2022-12-07T06:29:25;13.67;;;4.50;;
49730;SDS011;35622;52.008;5.426;2022-12-07T06:31:51;13.13;;;4.80;;
49730;SDS011;35622;52.008;5.426;2022-12-07T06:34:18;6.47;;;4.50;;
49730;SDS011;35622;52.008;5.426;2022-12-07T06:36:45;9.93;;;4.70;;
49730;SDS011;35622;52.008;5.426;2022-12-07T06:39:16;7.33;;;4.50;;
49730;SDS011;35622;52.008;5.426;2022-12-07T06:41:41;10.60;;;4.77;;
49730;SDS011;35622;52.008;5.426;2022-12-07T06:44:07;10.33;;;5.03;;
49730;SDS011;35622;52.008;5.426;2022-12-07T06:46:33;10.83;;;5.17;;
49730;SDS011;35622;52.008;5.426;2022-12-07T06:49:00;9.40;;;4.73;;
49730;SDS011;35622;52.008;5.426;2022-12-07T06:51:25;11.77;;;4.87;;
49730;SDS011;35622;52.008;5.426;2022-12-07T06:53:51;12.57;;;5.00;;
49730;SDS011;35622;52.008;5.426;2022-12-07T06:56:17;10.87;;;4.47;;
49730;SDS011;35622;52.008;5.426;2022-12-07T06:58:42;6.37;;;4.30;;
49730;SDS011;35622;52.008;5.426;2022-12-07T07:01:09;12.20;;;4.33;;
49730;SDS011;35622;52.008;5.426;2022-12-07T07:03:36;9.53;;;4.40;;
49730;SDS011;35622;52.008;5.426;2022-12-07T07:06:02;8.10;;;4.03;;
49730;SDS011;35622;52.008;5.426;2022-12-07T07:08:27;6.07;;;4.17;;
49730;SDS011;35622;52.008;5.426;2022-12-07T07:10:53;6.43;;;3.67;;
49730;SDS011;35622;52.008;5.426;2022-12-07T07:13:19;9.30;;;4.57;;
49730;SDS011;35622;52.008;5.426;2022-12-07T07:15:44;6.70;;;3.47;;
49730;SDS011;35622;52.008;5.426;2022-12-07T07:18:10;6.33;;;3.33;;
49730;SDS011;35622;52.008;5.426;2022-12-07T07:20:36;6.40;;;3.77;;
49730;SDS011;35622;52.008;5.426;2022-12-07T07:23:02;4.77;;;3.40;;
49730;SDS011;35622;52.008;5.426;2022-12-07T07:25:28;6.30;;;3.27;;
49730;SDS011;35622;52.008;5.426;2022-12-07T07:27:53;5.23;;;3.73;;
49730;SDS011;35622;52.008;5.426;2022-12-07T07:30:19;8.23;;;3.43;;
49730;SDS011;35622;52.008;5.426;2022-12-07T07:32:45;6.37;;;3.20;;
49730;SDS011;35622;52.008;5.426;2022-12-07T07:35:10;7.00;;;4.10;;
49730;SDS011;35622;52.008;5.426;2022-12-07T07:37:36;6.33;;;3.37;;
49730;SDS011;35622;52.008;5.426;2022-12-07T07:40:02;11.80;;;4.10;;
49730;SDS011;35622;52.008;5.426;2022-12-07T07:42:27;5.10;;;3.60;;
49730;SDS011;35622;52.008;5.426;2022-12-07T07:44:53;6.20;;;3.67;;
49730;SDS011;35622;52.008;5.426;2022-12-07T07:47:18;7.13;;;3.53;;
49730;SDS011;35622;52.008;5.426;2022-12-07T07:49:44;9.17;;;3.30;;
49730;SDS011;35622;52.008;5.426;2022-12-07T07:52:09;10.73;;;3.73;;
49730;SDS011;35622;52.008;5.426;2022-12-07T07:54:35;5.73;;;3.60;;
49730;SDS011;35622;52.008;5.426;2022-12-07T07:57:00;9.40;;;4.07;;
49730;SDS011;35622;52.008;5.426;2022-12-07T07:59:26;5.57;;;3.70;;
49730;SDS011;35622;52.008;5.426;2022-12-07T08:01:52;8.63;;;4.20;;
49730;SDS011;35622;52.008;5.426;2022-12-07T08:04:17;9.50;;;4.70;;
49730;SDS011;35622;52.008;5.426;2022-12-07T08:06:43;10.17;;;4.80;;
49730;SDS011;35622;52.008;5.426;2022-12-07T08:09:08;12.13;;;4.47;;
49730;SDS011;35622;52.008;5.426;2022-12-07T08:11:35;8.30;;;4.23;;
49730;SDS011;35622;52.008;5.426;2022-12-07T08:14:01;8.23;;;4.77;;
49730;SDS011;35622;52.008;5.426;2022-12-07T08:16:27;8.97;;;4.77;;
49730;SDS011;35622;52.008;5.426;2022-12-07T08:18:52;7.63;;;4.40;;
49730;SDS011;35622;52.008;5.426;2022-12-07T08:21:18;13.07;;;4.80;;
49730;SDS011;35622;52.008;5.426;2022-12-07T08:23:44;11.00;;;4.53;;
49730;SDS011;35622;52.008;5.426;2022-12-07T08:26:11;7.77;;;4.03;;
49730;SDS011;35622;52.008;5.426;2022-12-07T08:28:38;10.13;;;4.30;;
49730;SDS011;35622;52.008;5.426;2022-12-07T08:31:09;10.93;;;4.33;;
49730;SDS011;35622;52.008;5.426;2022-12-07T08:33:37;9.17;;;4.03;;
49730;SDS011;35622;52.008;5.426;2022-12-07T08:36:04;7.87;;;3.80;;
49730;SDS011;35622;52.008;5.426;2022-12-07T08:38:31;6.83;;;3.77;;
49730;SDS011;35622;52.008;5.426;2022-12-07T08:40:57;7.57;;;3.80;;
49730;SDS011;35622;52.008;5.426;2022-12-07T08:43:24;7.77;;;3.77;;
49730;SDS011;35622;52.008;5.426;2022-12-07T08:45:51;7.37;;;4.27;;
49730;SDS011;35622;52.008;5.426;2022-12-07T08:48:43;7.80;;;4.03;;
49730;SDS011;35622;52.008;5.426;2022-12-07T08:51:13;6.97;;;4.03;;
49730;SDS011;35622;52.008;5.426;2022-12-07T08:53:39;8.17;;;4.00;;
49730;SDS011;35622;52.008;5.426;2022-12-07T08:56:06;6.43;;;3.40;;
49730;SDS011;35622;52.008;5.426;2022-12-07T08:58:33;7.47;;;3.20;;
49730;SDS011;35622;52.008;5.426;2022-12-07T09:01:00;5.17;;;3.60;;
49730;SDS011;35622;52.008;5.426;2022-12-07T09:03:26;6.87;;;3.70;;
49730;SDS011;35622;52.008;5.426;2022-12-07T09:05:52;9.20;;;3.23;;
49730;SDS011;35622;52.008;5.426;2022-12-07T09:08:18;6.20;;;3.00;;
49730;SDS011;35622;52.008;5.426;2022-12-07T09:10:44;6.57;;;3.23;;
49730;SDS011;35622;52.008;5.426;2022-12-07T09:13:11;8.40;;;3.33;;
49730;SDS011;35622;52.008;5.426;2022-12-07T09:15:36;9.93;;;3.57;;
49730;SDS011;35622;52.008;5.426;2022-12-07T09:18:02;7.37;;;3.10;;
49730;SDS011;35622;52.008;5.426;2022-12-07T09:20:28;4.67;;;2.90;;
49730;SDS011;35622;52.008;5.426;2022-12-07T09:22:53;7.27;;;3.20;;
49730;SDS011;35622;52.008;5.426;2022-12-07T09:25:20;10.03;;;2.97;;
49730;SDS011;35622;52.008;5.426;2022-12-07T09:27:45;6.73;;;2.67;;
49730;SDS011;35622;52.008;5.426;2022-12-07T09:30:11;4.50;;;2.43;;
49730;SDS011;35622;52.008;5.426;2022-12-07T09:32:37;9.67;;;2.47;;
49730;SDS011;35622;52.008;5.426;2022-12-07T09:35:02;4.30;;;2.20;;
49730;SDS011;35622;52.008;5.426;2022-12-07T09:37:28;5.63;;;2.20;;
49730;SDS011;35622;52.008;5.426;2022-12-07T09:39:54;6.30;;;2.17;;
49730;SDS011;35622;52.008;5.426;2022-12-07T09:42:39;6.10;;;2.10;;
49730;SDS011;35622;52.008;5.426;2022-12-07T09:45:21;4.38;;;1.90;;
49730;SDS011;35622;52.008;5.426;2022-12-07T09:47:58;4.20;;;1.80;;
49730;SDS011;35622;52.008;5.426;2022-12-07T09:50:26;5.63;;;1.80;;
49730;SDS011;35622;52.008;5.426;2022-12-07T09:52:53;4.50;;;1.80;;
49730;SDS011;35622;52.008;5.426;2022-12-07T09:55:22;4.88;;;2.28;;
49730;SDS011;35622;52.008;5.426;2022-12-07T09:57:52;4.80;;;1.77;;
49730;SDS011;35622;52.008;5.426;2022-12-07T10:00:19;6.95;;;2.03;;
49730;SDS011;35622;52.008;5.426;2022-12-07T10:02:52;5.63;;;1.75;;
49730;SDS011;35622;52.008;5.426;2022-12-07T10:05:22;7.88;;;1.88;;
49730;SDS011;35622;52.008;5.426;2022-12-07T10:07:51;6.13;;;1.58;;
49730;SDS011;35622;52.008;5.426;2022-12-07T10:10:23;5.70;;;1.50;;
49730;SDS011;35622;52.008;5.426;2022-12-07T10:13:04;7.25;;;1.98;;
49730;SDS011;35622;52.008;5.426;2022-12-07T10:18:18;5.22;;;1.70;;
49730;SDS011;35622;52.008;5.426;2022-12-07T10:20:49;4.15;;;1.60;;
49730;SDS011;35622;52.008;5.426;2022-12-07T10:23:24;6.28;;;1.70;;
49730;SDS011;35622;52.008;5.426;2022-12-07T10:25:49;7.47;;;1.55;;
49730;SDS011;35622;52.008;5.426;2022-12-07T10:28:19;5.22;;;1.70;;
49730;SDS011;35622;52.008;5.426;2022-12-07T10:33:35;7.55;;;2.13;;
49730;SDS011;35622;52.008;5.426;2022-12-07T10:36:25;7.22;;;1.50;;
49730;SDS011;35622;52.008;5.426;2022-12-07T10:38:59;4.15;;;1.63;;
49730;SDS011;35622;52.008;5.426;2022-12-07T10:41:25;5.30;;;1.52;;
49730;SDS011;35622;52.008;5.426;2022-12-07T10:43:52;6.25;;;1.70;;
49730;SDS011;35622;52.008;5.426;2022-12-07T10:52:03;4.05;;;1.30;;
49730;SDS011;35622;52.008;5.426;2022-12-07T10:57:32;5.95;;;1.45;;
49730;SDS011;35622;52.008;5.426;2022-12-07T11:00:12;3.47;;;1.33;;
49730;SDS011;35622;52.008;5.426;2022-12-07T11:08:11;6.20;;;1.40;;
49730;SDS011;35622;52.008;5.426;2022-12-07T11:27:14;5.53;;;1.38;;
49730;SDS011;35622;52.008;5.426;2022-12-07T11:29:48;4.70;;;1.48;;
49730;SDS011;35622;52.008;5.426;2022-12-07T11:33:09;4.40;;;1.27;;
49730;SDS011;35622;52.008;5.426;2022-12-07T11:35:36;5.88;;;1.50;;
49730;SDS011;35622;52.008;5.426;2022-12-07T11:38:23;6.30;;;1.63;;
49730;SDS011;35622;52.008;5.426;2022-12-07T11:40:56;5.88;;;1.85;;
49730;SDS011;35622;52.008;5.426;2022-12-07T11:43:37;7.68;;;2.00;;
49730;SDS011;35622;52.008;5.426;2022-12-07T11:46:27;7.13;;;1.85;;
49730;SDS011;35622;52.008;5.426;2022-12-07T11:49:13;5.22;;;1.63;;
49730;SDS011;35622;52.008;5.426;2022-12-07T11:52:02;4.78;;;1.50;;
49730;SDS011;35622;52.008;5.426;2022-12-07T11:54:32;6.10;;;1.33;;
49730;SDS011;35622;52.008;5.426;2022-12-07T11:57:08;5.43;;;1.30;;
49730;SDS011;35622;52.008;5.426;2022-12-07T11:59:42;8.30;;;1.50;;
49730;SDS011;35622;52.008;5.426;2022-12-07T12:02:16;6.40;;;1.45;;
49730;SDS011;35622;52.008;5.426;2022-12-07T12:07:38;3.30;;;1.20;;
49730;SDS011;35622;52.008;5.426;2022-12-07T12:10:06;5.38;;;1.20;;
49730;SDS011;35622;52.008;5.426;2022-12-07T12:13:03;5.72;;;1.27;;
49730;SDS011;35622;52.008;5.426;2022-12-07T12:15:42;4.15;;;1.13;;
49730;SDS011;35622;52.008;5.426;2022-12-07T12:18:24;4.97;;;0.90;;
49730;SDS011;35622;52.008;5.426;2022-12-07T12:20:58;4.15;;;1.15;;
49730;SDS011;35622;52.008;5.426;2022-12-07T12:25:54;7.60;;;0.90;;
49730;SDS011;35622;52.008;5.426;2022-12-07T12:28:27;5.20;;;1.10;;
49730;SDS011;35622;52.008;5.426;2022-12-07T12:33:48;5.55;;;0.80;;
49730;SDS011;35622;52.008;5.426;2022-12-07T12:44:03;2.55;;;0.80;;
49730;SDS011;35622;52.008;5.426;2022-12-07T12:51:54;4.15;;;1.00;;
49730;SDS011;35622;52.008;5.426;2022-12-07T12:57:04;4.43;;;1.10;;
49730;SDS011;35622;52.008;5.426;2022-12-07T13:02:16;5.35;;;1.10;;
49730;SDS011;35622;52.008;5.426;2022-12-07T13:05:33;3.22;;;1.00;;
49730;SDS011;35622;52.008;5.426;2022-12-07T13:10:54;4.22;;;0.90;;
49730;SDS011;35622;52.008;5.426;2022-12-07T13:15:41;9.05;;;1.27;;
49730;SDS011;35622;52.008;5.426;2022-12-07T13:20:53;4.93;;;1.20;;
49730;SDS011;35622;52.008;5.426;2022-12-07T13:24:08;5.30;;;1.15;;
49730;SDS011;35622;52.008;5.426;2022-12-07T13:26:16;4.38;;;1.17;;
49730;SDS011;35622;52.008;5.426;2022-12-07T13:31:44;8.75;;;1.10;;
49730;SDS011;35622;52.008;5.426;2022-12-07T13:37:05;4.10;;;1.15;;
49730;SDS011;35622;52.008;5.426;2022-12-07T13:39:45;4.95;;;1.20;;
49730;SDS011;35622;52.008;5.426;2022-12-07T13:42:24;4.63;;;1.13;;
49730;SDS011;35622;52.008;5.426;2022-12-07T13:44:51;4.32;;;1.20;;
49730;SDS011;35622;52.008;5.426;2022-12-07T13:47:18;5.60;;;1.30;;
49730;SDS011;35622;52.008;5.426;2022-12-07T13:50:01;8.18;;;1.23;;
49730;SDS011;35622;52.008;5.426;2022-12-07T13:52:46;4.55;;;1.10;;
49730;SDS011;35622;52.008;5.426;2022-12-07T13:55:14;5.85;;;1.35;;
49730;SDS011;35622;52.008;5.426;2022-12-07T13:57:42;5.63;;;1.48;;
49730;SDS011;35622;52.008;5.426;2022-12-07T14:00:15;3.90;;;1.23;;
49730;SDS011;35622;52.008;5.426;2022-12-07T14:03:03;3.72;;;1.10;;
49730;SDS011;35622;52.008;5.426;2022-12-07T14:05:47;5.88;;;1.17;;
49730;SDS011;35622;52.008;5.426;2022-12-07T14:08:43;5.32;;;1.23;;
49730;SDS011;35622;52.008;5.426;2022-12-07T14:11:12;4.95;;;1.30;;
49730;SDS011;35622;52.008;5.426;2022-12-07T14:16:33;4.63;;;1.30;;
49730;SDS011;35622;52.008;5.426;2022-12-07T14:19:05;4.93;;;1.30;;
49730;SDS011;35622;52.008;5.426;2022-12-07T14:22:05;7.40;;;0.95;;
49730;SDS011;35622;52.008;5.426;2022-12-07T14:24:43;2.67;;;0.88;;
49730;SDS011;35622;52.008;5.426;2022-12-07T14:30:02;3.88;;;1.10;;
49730;SDS011;35622;52.008;5.426;2022-12-07T14:32:29;4.22;;;1.05;;
49730;SDS011;35622;52.008;5.426;2022-12-07T14:37:23;4.88;;;1.05;;
49730;SDS011;35622;52.008;5.426;2022-12-07T14:39:50;3.67;;;1.08;;
49730;SDS011;35622;52.008;5.426;2022-12-07T14:42:15;3.03;;;1.00;;
49730;SDS011;35622;52.008;5.426;2022-12-07T14:44:41;2.28;;;1.20;;
49730;SDS011;35622;52.008;5.426;2022-12-07T14:47:11;6.40;;;1.10;;
49730;SDS011;35622;52.008;5.426;2022-12-07T14:49:36;3.30;;;0.80;;
49730;SDS011;35622;52.008;5.426;2022-12-07T14:52:03;3.90;;;0.90;;
49730;SDS011;35622;52.008;5.426;2022-12-07T14:54:30;2.95;;;0.90;;
49730;SDS011;35622;52.008;5.426;2022-12-07T14:56:57;6.97;;;1.23;;
49730;SDS011;35622;52.008;5.426;2022-12-07T14:59:23;1.13;;;0.70;;
49730;SDS011;35622;52.008;5.426;2022-12-07T15:01:49;1.50;;;0.80;;
49730;SDS011;35622;52.008;5.426;2022-12-07T15:04:14;3.90;;;0.93;;
49730;SDS011;35622;52.008;5.426;2022-12-07T15:06:40;3.38;;;0.90;;
49730;SDS011;35622;52.008;5.426;2022-12-07T15:09:08;4.53;;;0.82;;
49730;SDS011;35622;52.008;5.426;2022-12-07T15:11:36;1.77;;;0.65;;
49730;SDS011;35622;52.008;5.426;2022-12-07T15:14:01;1.23;;;0.60;;
49730;SDS011;35622;52.008;5.426;2022-12-07T15:16:33;3.70;;;0.70;;
49730;SDS011;35622;52.008;5.426;2022-12-07T15:19:00;3.58;;;0.60;;
49730;SDS011;35622;52.008;5.426;2022-12-07T15:21:25;2.90;;;0.70;;
49730;SDS011;35622;52.008;5.426;2022-12-07T15:23:51;2.90;;;0.70;;
49730;SDS011;35622;52.008;5.426;2022-12-07T15:26:16;2.20;;;0.73;;
49730;SDS011;35622;52.008;5.426;2022-12-07T15:28:42;6.15;;;0.70;;
49730;SDS011;35622;52.008;5.426;2022-12-07T15:31:11;6.25;;;0.70;;
49730;SDS011;35622;52.008;5.426;2022-12-07T15:33:38;2.45;;;0.60;;
49730;SDS011;35622;52.008;5.426;2022-12-07T15:36:04;1.38;;;0.63;;
49730;SDS011;35622;52.008;5.426;2022-12-07T15:38:29;1.23;;;0.57;;
49730;SDS011;35622;52.008;5.426;2022-12-07T15:40:55;2.65;;;0.60;;
49730;SDS011;35622;52.008;5.426;2022-12-07T15:43:21;3.03;;;0.60;;
49730;SDS011;35622;52.008;5.426;2022-12-07T15:46:05;2.78;;;0.60;;
49730;SDS011;35622;52.008;5.426;2022-12-07T15:48:31;4.50;;;0.90;;
49730;SDS011;35622;52.008;5.426;2022-12-07T15:51:06;1.63;;;0.50;;
49730;SDS011;35622;52.008;5.426;2022-12-07T15:53:33;6.45;;;0.80;;
49730;SDS011;35622;52.008;5.426;2022-12-07T15:55:59;1.90;;;0.60;;
49730;SDS011;35622;52.008;5.426;2022-12-07T15:58:25;2.78;;;0.50;;
49730;SDS011;35622;52.008;5.426;2022-12-07T16:00:51;2.22;;;0.88;;
49730;SDS011;35622;52.008;5.426;2022-12-07T16:03:16;1.10;;;0.60;;
49730;SDS011;35622;52.008;5.426;2022-12-07T16:05:48;3.95;;;0.60;;
49730;SDS011;35622;52.008;5.426;2022-12-07T16:08:17;1.93;;;0.80;;
49730;SDS011;35622;52.008;5.426;2022-12-07T16:10:42;3.73;;;0.90;;
49730;SDS011;35622;52.008;5.426;2022-12-07T16:13:09;3.28;;;0.65;;
49730;SDS011;35622;52.008;5.426;2022-12-07T16:15:38;1.60;;;0.60;;
49730;SDS011;35622;52.008;5.426;2022-12-07T16:18:04;2.27;;;1.20;;
49730;SDS011;35622;52.008;5.426;2022-12-07T16:20:30;1.57;;;0.80;;
49730;SDS011;35622;52.008;5.426;2022-12-07T16:22:56;5.23;;;0.93;;
49730;SDS011;35622;52.008;5.426;2022-12-07T16:25:21;3.30;;;0.90;;
49730;SDS011;35622;52.008;5.426;2022-12-07T16:27:47;4.47;;;1.00;;
49730;SDS011;35622;52.008;5.426;2022-12-07T16:30:14;2.53;;;1.10;;
49730;SDS011;35622;52.008;5.426;2022-12-07T16:32:41;4.50;;;0.90;;
49730;SDS011;35622;52.008;5.426;2022-12-07T16:35:07;5.80;;;0.90;;
49730;SDS011;35622;52.008;5.426;2022-12-07T16:37:33;1.77;;;0.80;;
49730;SDS011;35622;52.008;5.426;2022-12-07T16:39:59;3.10;;;0.80;;
49730;SDS011;35622;52.008;5.426;2022-12-07T16:42:24;1.53;;;0.90;;
49730;SDS011;35622;52.008;5.426;2022-12-07T16:44:50;2.37;;;0.97;;